sensor_id;sensor_type;location;lat;lon;timestamp;pressure;altitude;pressure_sealevel;temperature;humidity
7109;BME280;29079;41.930;25.558;2022-09-09T00:00:53;99782.44;;;19.64;50.78
7109;BME280;29079;41.930;25.558;2022-09-09T00:03:27;99777.78;;;19.58;50.54
7109;BME280;29079;41.930;25.558;2022-09-09T00:06:02;99781.13;;;19.60;50.46
7109;BME280;29079;41.930;25.558;2022-09-09T00:08:43;99798.63;;;19.58;50.36
7109;BME280;29079;41.930;25.558;2022-09-09T00:11:24;99804.03;;;19.58;50.01
7109;BME280;29079;41.930;25.558;2022-09-09T00:14:02;99808.97;;;19.54;50.21
7109;BME280;29079;41.930;25.558;2022-09-09T00:16:35;99812.25;;;19.49;49.88
7109;BME280;29079;41.930;25.558;2022-09-09T00:19:15;99815.72;;;19.43;50.24
7109;BME280;29079;41.930;25.558;2022-09-09T00:21:55;99822.25;;;19.49;49.83
7109;BME280;29079;41.930;25.558;2022-09-09T00:24:35;99823.63;;;19.45;49.86
7109;BME280;29079;41.930;25.558;2022-09-09T00:27:13;99820.75;;;19.46;49.75
7109;BME280;29079;41.930;25.558;2022-09-09T00:29:52;99814.94;;;19.49;49.13
7109;BME280;29079;41.930;25.558;2022-09-09T00:32:28;99805.06;;;19.42;49.13
7109;BME280;29079;41.930;25.558;2022-09-09T00:35:02;99802.56;;;19.40;49.34
7109;BME280;29079;41.930;25.558;2022-09-09T00:37:34;99799.09;;;19.31;49.59
7109;BME280;29079;41.930;25.558;2022-09-09T00:40:18;99743.69;;;18.98;49.93
7109;BME280;29079;41.930;25.558;2022-09-09T00:42:58;99805.44;;;19.24;50.70
7109;BME280;29079;41.930;25.558;2022-09-09T00:45:51;99805.25;;;19.25;50.44
7109;BME280;29079;41.930;25.558;2022-09-09T00:48:31;99796.47;;;19.23;50.62
7109;BME280;29079;41.930;25.558;2022-09-09T00:51:09;99798.63;;;19.28;50.67
7109;BME280;29079;41.930;25.558;2022-09-09T00:53:58;99806.56;;;19.29;50.80
7109;BME280;29079;41.930;25.558;2022-09-09T00:56:37;99805.25;;;19.25;51.07
7109;BME280;29079;41.930;25.558;2022-09-09T00:59:21;99803.84;;;19.14;51.22
7109;BME280;29079;41.930;25.558;2022-09-09T01:01:56;99823.59;;;19.00;51.70
7109;BME280;29079;41.930;25.558;2022-09-09T01:04:32;99811.53;;;18.88;51.83
7109;BME280;29079;41.930;25.558;2022-09-09T01:07:13;99825.56;;;18.68;52.38
7109;BME280;29079;41.930;25.558;2022-09-09T01:09:52;99815.13;;;18.42;52.88
7109;BME280;29079;41.930;25.558;2022-09-09T01:12:30;99798.53;;;18.45;52.63
7109;BME280;29079;41.930;25.558;2022-09-09T01:15:08;99822.66;;;18.70;52.47
7109;BME280;29079;41.930;25.558;2022-09-09T01:17:50;99780.97;;;18.26;52.75
7109;BME280;29079;41.930;25.558;2022-09-09T01:20:24;99815.72;;;18.52;52.80
7109;BME280;29079;41.930;25.558;2022-09-09T01:23:17;99831.31;;;18.65;52.70
7109;BME280;29079;41.930;25.558;2022-09-09T01:26:08;99830.22;;;18.51;53.32
7109;BME280;29079;41.930;25.558;2022-09-09T01:28:40;99830.38;;;18.58;53.14
7109;BME280;29079;41.930;25.558;2022-09-09T01:31:14;99831.63;;;18.47;53.60
7109;BME280;29079;41.930;25.558;2022-09-09T01:33:46;99834.94;;;18.34;53.96
7109;BME280;29079;41.930;25.558;2022-09-09T01:36:21;99832.16;;;18.42;53.83
7109;BME280;29079;41.930;25.558;2022-09-09T01:38:54;99831.78;;;18.45;53.69
7109;BME280;29079;41.930;25.558;2022-09-09T01:41:26;99832.34;;;18.41;53.68
7109;BME280;29079;41.930;25.558;2022-09-09T01:43:56;99826.66;;;18.36;53.68
7109;BME280;29079;41.930;25.558;2022-09-09T01:46:27;99800.31;;;18.06;53.94
7109;BME280;29079;41.930;25.558;2022-09-09T01:48:59;99828.91;;;18.24;54.12
7109;BME280;29079;41.930;25.558;2022-09-09T01:51:31;99822.22;;;18.43;53.88
7109;BME280;29079;41.930;25.558;2022-09-09T01:54:01;99818.41;;;18.52;53.83
7109;BME280;29079;41.930;25.558;2022-09-09T01:56:42;99825.31;;;18.55;53.67
7109;BME280;29079;41.930;25.558;2022-09-09T01:59:32;99822.91;;;18.60;53.71
7109;BME280;29079;41.930;25.558;2022-09-09T02:02:11;99827.47;;;18.59;53.10
7109;BME280;29079;41.930;25.558;2022-09-09T02:04:44;99818.97;;;18.48;53.31
7109;BME280;29079;41.930;25.558;2022-09-09T02:07:29;99829.53;;;18.57;53.25
7109;BME280;29079;41.930;25.558;2022-09-09T02:10:08;99831.34;;;18.42;53.72
7109;BME280;29079;41.930;25.558;2022-09-09T02:12:45;99835.63;;;18.28;54.11
7109;BME280;29079;41.930;25.558;2022-09-09T02:15:20;99836.00;;;18.25;54.14
7109;BME280;29079;41.930;25.558;2022-09-09T02:17:54;99833.69;;;18.14;54.51
7109;BME280;29079;41.930;25.558;2022-09-09T02:20:27;99826.69;;;18.27;53.84
7109;BME280;29079;41.930;25.558;2022-09-09T02:23:04;99834.41;;;18.39;53.39
7109;BME280;29079;41.930;25.558;2022-09-09T02:25:35;99816.78;;;17.97;54.41
7109;BME280;29079;41.930;25.558;2022-09-09T02:28:08;99826.13;;;18.09;54.38
7109;BME280;29079;41.930;25.558;2022-09-09T02:30:40;99823.41;;;18.17;53.72
7109;BME280;29079;41.930;25.558;2022-09-09T02:33:14;99823.50;;;18.24;53.47
7109;BME280;29079;41.930;25.558;2022-09-09T02:35:45;99827.25;;;18.23;53.35
7109;BME280;29079;41.930;25.558;2022-09-09T02:38:16;99821.84;;;18.23;53.55
7109;BME280;29079;41.930;25.558;2022-09-09T02:40:46;99816.91;;;18.26;53.68
7109;BME280;29079;41.930;25.558;2022-09-09T02:43:18;99814.19;;;18.03;53.83
7109;BME280;29079;41.930;25.558;2022-09-09T02:45:52;99807.91;;;18.11;54.06
7109;BME280;29079;41.930;25.558;2022-09-09T02:48:30;99810.47;;;18.04;54.43
7109;BME280;29079;41.930;25.558;2022-09-09T02:51:08;99809.84;;;17.94;54.44
7109;BME280;29079;41.930;25.558;2022-09-09T02:53:46;99811.22;;;17.90;54.79
7109;BME280;29079;41.930;25.558;2022-09-09T02:56:21;99804.34;;;17.79;55.58
7109;BME280;29079;41.930;25.558;2022-09-09T02:58:52;99807.56;;;17.74;55.89
7109;BME280;29079;41.930;25.558;2022-09-09T03:01:22;99811.09;;;17.75;56.05
7109;BME280;29079;41.930;25.558;2022-09-09T03:03:52;99806.88;;;17.81;56.38
7109;BME280;29079;41.930;25.558;2022-09-09T03:06:23;99766.44;;;17.33;56.57
7109;BME280;29079;41.930;25.558;2022-09-09T03:08:53;99805.94;;;17.57;57.25
7109;BME280;29079;41.930;25.558;2022-09-09T03:11:23;99761.34;;;17.38;56.98
7109;BME280;29079;41.930;25.558;2022-09-09T03:13:54;99803.72;;;17.69;56.55
7109;BME280;29079;41.930;25.558;2022-09-09T03:16:24;99803.06;;;17.58;56.51
7109;BME280;29079;41.930;25.558;2022-09-09T03:18:54;99802.78;;;17.45;57.06
7109;BME280;29079;41.930;25.558;2022-09-09T03:21:24;99805.19;;;17.40;56.98
7109;BME280;29079;41.930;25.558;2022-09-09T03:23:54;99801.75;;;17.54;56.83
7109;BME280;29079;41.930;25.558;2022-09-09T03:26:25;99798.53;;;17.59;56.68
7109;BME280;29079;41.930;25.558;2022-09-09T03:28:57;99802.91;;;17.60;56.89
7109;BME280;29079;41.930;25.558;2022-09-09T03:31:28;99801.44;;;17.49;57.07
7109;BME280;29079;41.930;25.558;2022-09-09T03:33:59;99796.78;;;17.27;57.47
7109;BME280;29079;41.930;25.558;2022-09-09T03:36:30;99802.22;;;17.02;57.89
7109;BME280;29079;41.930;25.558;2022-09-09T03:39:00;99788.94;;;17.00;58.00
7109;BME280;29079;41.930;25.558;2022-09-09T03:41:31;99804.94;;;17.02;58.46
7109;BME280;29079;41.930;25.558;2022-09-09T03:44:04;99804.22;;;17.16;58.04
7109;BME280;29079;41.930;25.558;2022-09-09T03:46:33;99805.94;;;17.09;57.95
7109;BME280;29079;41.930;25.558;2022-09-09T03:49:03;99815.75;;;16.94;58.76
7109;BME280;29079;41.930;25.558;2022-09-09T03:51:33;99818.75;;;16.99;58.43
7109;BME280;29079;41.930;25.558;2022-09-09T03:54:05;99822.78;;;17.03;58.31
7109;BME280;29079;41.930;25.558;2022-09-09T03:56:37;99809.66;;;16.83;58.81
7109;BME280;29079;41.930;25.558;2022-09-09T03:59:08;99815.56;;;17.03;58.52
7109;BME280;29079;41.930;25.558;2022-09-09T04:01:38;99820.97;;;17.03;58.17
7109;BME280;29079;41.930;25.558;2022-09-09T04:04:10;99826.34;;;16.95;58.52
7109;BME280;29079;41.930;25.558;2022-09-09T04:06:40;99834.25;;;16.80;59.67
7109;BME280;29079;41.930;25.558;2022-09-09T04:09:10;99836.13;;;16.71;59.74
7109;BME280;29079;41.930;25.558;2022-09-09T04:11:40;99827.19;;;16.71;60.28
7109;BME280;29079;41.930;25.558;2022-09-09T04:14:11;99828.19;;;16.70;60.30
7109;BME280;29079;41.930;25.558;2022-09-09T04:16:42;99832.88;;;16.60;61.04
7109;BME280;29079;41.930;25.558;2022-09-09T04:19:13;99834.75;;;16.59;61.28
7109;BME280;29079;41.930;25.558;2022-09-09T04:21:43;99842.66;;;16.52;61.36
7109;BME280;29079;41.930;25.558;2022-09-09T04:24:13;99838.97;;;16.62;61.11
7109;BME280;29079;41.930;25.558;2022-09-09T04:26:44;99840.66;;;16.71;61.59
7109;BME280;29079;41.930;25.558;2022-09-09T04:29:16;99839.66;;;16.72;61.74
7109;BME280;29079;41.930;25.558;2022-09-09T04:31:46;99842.69;;;16.69;62.02
7109;BME280;29079;41.930;25.558;2022-09-09T04:34:16;99850.44;;;16.72;62.27
7109;BME280;29079;41.930;25.558;2022-09-09T04:36:46;99842.69;;;16.69;62.44
7109;BME280;29079;41.930;25.558;2022-09-09T04:39:16;99844.69;;;16.75;61.98
7109;BME280;29079;41.930;25.558;2022-09-09T04:41:46;99844.69;;;16.75;61.08
7109;BME280;29079;41.930;25.558;2022-09-09T04:44:18;99848.41;;;16.82;61.39
7109;BME280;29079;41.930;25.558;2022-09-09T04:46:47;99845.03;;;16.80;61.66
7109;BME280;29079;41.930;25.558;2022-09-09T04:49:17;99852.97;;;16.82;61.64
7109;BME280;29079;41.930;25.558;2022-09-09T04:51:48;99849.06;;;16.84;61.48
7109;BME280;29079;41.930;25.558;2022-09-09T04:54:18;99854.31;;;16.94;61.28
7109;BME280;29079;41.930;25.558;2022-09-09T04:56:50;99858.00;;;16.93;61.19
7109;BME280;29079;41.930;25.558;2022-09-09T04:59:21;99859.03;;;17.00;60.89
7109;BME280;29079;41.930;25.558;2022-09-09T05:01:52;99859.88;;;17.01;61.02
7109;BME280;29079;41.930;25.558;2022-09-09T05:04:23;99839.66;;;16.97;60.89
7109;BME280;29079;41.930;25.558;2022-09-09T05:06:53;99852.13;;;16.98;61.63
7109;BME280;29079;41.930;25.558;2022-09-09T05:09:23;99851.63;;;17.02;61.45
7109;BME280;29079;41.930;25.558;2022-09-09T05:11:53;99842.44;;;17.36;62.03
7109;BME280;29079;41.930;25.558;2022-09-09T05:14:25;99829.63;;;17.38;60.44
7109;BME280;29079;41.930;25.558;2022-09-09T05:16:56;99837.22;;;17.35;60.81
7109;BME280;29079;41.930;25.558;2022-09-09T05:19:26;99831.53;;;17.69;61.90
7109;BME280;29079;41.930;25.558;2022-09-09T05:21:58;99831.97;;;17.89;60.34
7109;BME280;29079;41.930;25.558;2022-09-09T05:24:29;99837.88;;;17.93;60.35
7109;BME280;29079;41.930;25.558;2022-09-09T05:27:02;99842.25;;;18.25;61.16
7109;BME280;29079;41.930;25.558;2022-09-09T05:29:36;99839.56;;;18.25;60.26
7109;BME280;29079;41.930;25.558;2022-09-09T05:32:08;99843.31;;;18.39;61.19
7109;BME280;29079;41.930;25.558;2022-09-09T05:34:43;99843.97;;;18.65;61.03
7109;BME280;29079;41.930;25.558;2022-09-09T05:37:13;99840.84;;;18.76;59.48
7109;BME280;29079;41.930;25.558;2022-09-09T05:39:43;99846.16;;;18.69;60.04
7109;BME280;29079;41.930;25.558;2022-09-09T05:42:13;99835.44;;;18.76;59.18
7109;BME280;29079;41.930;25.558;2022-09-09T05:44:45;99841.22;;;18.96;59.41
7109;BME280;29079;41.930;25.558;2022-09-09T05:47:14;99841.03;;;19.12;58.80
7109;BME280;29079;41.930;25.558;2022-09-09T05:49:45;99837.13;;;18.77;58.46
7109;BME280;29079;41.930;25.558;2022-09-09T05:52:15;99854.94;;;19.09;58.45
7109;BME280;29079;41.930;25.558;2022-09-09T05:54:45;99847.13;;;19.29;57.36
7109;BME280;29079;41.930;25.558;2022-09-09T05:57:15;99850.22;;;19.41;58.01
7109;BME280;29079;41.930;25.558;2022-09-09T05:59:46;99844.69;;;19.05;58.07
7109;BME280;29079;41.930;25.558;2022-09-09T06:02:16;99838.75;;;19.39;57.61
7109;BME280;29079;41.930;25.558;2022-09-09T06:04:47;99843.78;;;19.57;58.11
7109;BME280;29079;41.930;25.558;2022-09-09T06:07:17;99847.31;;;19.73;58.17
7109;BME280;29079;41.930;25.558;2022-09-09T06:09:47;99849.47;;;19.92;57.45
7109;BME280;29079;41.930;25.558;2022-09-09T06:12:16;99850.91;;;19.88;57.54
7109;BME280;29079;41.930;25.558;2022-09-09T06:14:48;99853.41;;;19.90;57.17
7109;BME280;29079;41.930;25.558;2022-09-09T06:17:19;99856.19;;;19.96;57.11
7109;BME280;29079;41.930;25.558;2022-09-09T06:19:49;99850.56;;;19.98;57.00
7109;BME280;29079;41.930;25.558;2022-09-09T06:22:20;99864.16;;;20.20;55.96
7109;BME280;29079;41.930;25.558;2022-09-09T06:24:50;99866.19;;;20.32;55.24
7109;BME280;29079;41.930;25.558;2022-09-09T06:27:20;99861.28;;;20.43;54.83
7109;BME280;29079;41.930;25.558;2022-09-09T06:29:51;99860.91;;;20.46;54.98
7109;BME280;29079;41.930;25.558;2022-09-09T06:32:21;99859.69;;;20.48;55.59
7109;BME280;29079;41.930;25.558;2022-09-09T06:34:51;99846.44;;;20.60;54.43
7109;BME280;29079;41.930;25.558;2022-09-09T06:37:21;99851.44;;;20.57;55.42
7109;BME280;29079;41.930;25.558;2022-09-09T06:39:52;99855.88;;;20.64;55.73
7109;BME280;29079;41.930;25.558;2022-09-09T06:42:23;99847.50;;;20.81;54.57
7109;BME280;29079;41.930;25.558;2022-09-09T06:44:54;99847.97;;;20.84;55.10
7109;BME280;29079;41.930;25.558;2022-09-09T06:47:24;99854.97;;;21.00;53.45
7109;BME280;29079;41.930;25.558;2022-09-09T06:49:55;99851.13;;;21.16;52.98
7109;BME280;29079;41.930;25.558;2022-09-09T06:52:25;99845.72;;;21.23;52.33
7109;BME280;29079;41.930;25.558;2022-09-09T06:54:55;99846.00;;;21.28;52.02
7109;BME280;29079;41.930;25.558;2022-09-09T06:57:27;99835.41;;;21.40;52.15
7109;BME280;29079;41.930;25.558;2022-09-09T07:00:07;99829.50;;;21.30;52.74
7109;BME280;29079;41.930;25.558;2022-09-09T07:02:38;99832.09;;;21.45;52.69
7109;BME280;29079;41.930;25.558;2022-09-09T07:05:09;99830.03;;;21.47;52.11
7109;BME280;29079;41.930;25.558;2022-09-09T07:07:39;99843.91;;;21.65;52.29
7109;BME280;29079;41.930;25.558;2022-09-09T07:10:09;99840.41;;;21.71;52.49
7109;BME280;29079;41.930;25.558;2022-09-09T07:12:39;99840.47;;;21.85;49.77
7109;BME280;29079;41.930;25.558;2022-09-09T07:15:11;99847.16;;;21.82;49.93
7109;BME280;29079;41.930;25.558;2022-09-09T07:17:42;99842.94;;;21.80;50.81
7109;BME280;29079;41.930;25.558;2022-09-09T07:20:12;99841.09;;;21.87;50.70
7109;BME280;29079;41.930;25.558;2022-09-09T07:22:43;99836.53;;;21.94;50.80
7109;BME280;29079;41.930;25.558;2022-09-09T07:25:13;99842.03;;;22.07;50.58
7109;BME280;29079;41.930;25.558;2022-09-09T07:27:45;99823.84;;;22.08;50.39
7109;BME280;29079;41.930;25.558;2022-09-09T07:30:16;99834.13;;;22.26;50.45
7109;BME280;29079;41.930;25.558;2022-09-09T07:32:55;99841.50;;;22.32;50.48
7109;BME280;29079;41.930;25.558;2022-09-09T07:35:25;99841.09;;;22.35;50.56
7109;BME280;29079;41.930;25.558;2022-09-09T07:37:57;99833.78;;;22.42;50.04
7109;BME280;29079;41.930;25.558;2022-09-09T07:40:27;99845.94;;;22.47;50.43
7109;BME280;29079;41.930;25.558;2022-09-09T07:42:57;99843.00;;;22.55;49.79
7109;BME280;29079;41.930;25.558;2022-09-09T07:45:30;99851.69;;;22.30;49.94
7109;BME280;29079;41.930;25.558;2022-09-09T07:48:02;99851.13;;;22.41;50.38
7109;BME280;29079;41.930;25.558;2022-09-09T07:50:32;99854.28;;;22.52;50.35
7109;BME280;29079;41.930;25.558;2022-09-09T07:53:01;99863.09;;;22.60;50.40
7109;BME280;29079;41.930;25.558;2022-09-09T07:55:33;99860.59;;;22.66;50.39
7109;BME280;29079;41.930;25.558;2022-09-09T07:58:03;99857.25;;;22.70;50.99
7109;BME280;29079;41.930;25.558;2022-09-09T08:00:34;99859.56;;;22.80;50.67
7109;BME280;29079;41.930;25.558;2022-09-09T08:03:04;99855.56;;;22.69;49.95
7109;BME280;29079;41.930;25.558;2022-09-09T08:05:35;99856.22;;;22.71;50.05
7109;BME280;29079;41.930;25.558;2022-09-09T08:08:05;99850.13;;;22.89;49.60
7109;BME280;29079;41.930;25.558;2022-09-09T08:10:35;99848.25;;;22.97;49.38
7109;BME280;29079;41.930;25.558;2022-09-09T08:13:06;99841.75;;;22.91;49.57
7109;BME280;29079;41.930;25.558;2022-09-09T08:15:47;99836.75;;;23.08;49.89
7109;BME280;29079;41.930;25.558;2022-09-09T08:18:18;99826.94;;;23.14;49.53
7109;BME280;29079;41.930;25.558;2022-09-09T08:20:48;99824.56;;;23.30;48.93
7109;BME280;29079;41.930;25.558;2022-09-09T08:23:19;99820.38;;;23.41;48.88
7109;BME280;29079;41.930;25.558;2022-09-09T08:25:49;99810.97;;;23.37;48.72
7109;BME280;29079;41.930;25.558;2022-09-09T08:28:19;99809.50;;;23.41;48.69
7109;BME280;29079;41.930;25.558;2022-09-09T08:30:51;99805.25;;;23.52;48.72
7109;BME280;29079;41.930;25.558;2022-09-09T08:33:21;99800.81;;;23.64;48.60
7109;BME280;29079;41.930;25.558;2022-09-09T08:35:52;99795.38;;;23.64;48.13
7109;BME280;29079;41.930;25.558;2022-09-09T08:38:21;99802.94;;;23.56;47.87
7109;BME280;29079;41.930;25.558;2022-09-09T08:40:55;99801.44;;;23.60;48.68
7109;BME280;29079;41.930;25.558;2022-09-09T08:43:30;99797.63;;;23.74;48.28
7109;BME280;29079;41.930;25.558;2022-09-09T08:46:07;99794.44;;;23.84;48.06
7109;BME280;29079;41.930;25.558;2022-09-09T08:48:47;99772.41;;;23.86;47.61
7109;BME280;29079;41.930;25.558;2022-09-09T08:51:21;99777.66;;;23.94;47.57
7109;BME280;29079;41.930;25.558;2022-09-09T08:53:55;99769.44;;;24.01;47.40
7109;BME280;29079;41.930;25.558;2022-09-09T08:56:31;99767.72;;;24.06;47.65
7109;BME280;29079;41.930;25.558;2022-09-09T08:59:03;99774.75;;;24.21;47.35
7109;BME280;29079;41.930;25.558;2022-09-09T09:01:57;99766.53;;;24.27;47.17
7109;BME280;29079;41.930;25.558;2022-09-09T09:04:45;99758.72;;;24.38;46.17
7109;BME280;29079;41.930;25.558;2022-09-09T09:07:26;99755.31;;;24.42;46.00
7109;BME280;29079;41.930;25.558;2022-09-09T09:10:05;99753.22;;;24.44;45.79
7109;BME280;29079;41.930;25.558;2022-09-09T09:12:59;99754.41;;;24.48;46.10
7109;BME280;29079;41.930;25.558;2022-09-09T09:15:33;99746.44;;;24.47;45.80
7109;BME280;29079;41.930;25.558;2022-09-09T09:18:08;99741.78;;;24.54;45.67
7109;BME280;29079;41.930;25.558;2022-09-09T09:20:49;99743.00;;;24.65;45.45
7109;BME280;29079;41.930;25.558;2022-09-09T09:23:23;99737.09;;;24.68;45.60
7109;BME280;29079;41.930;25.558;2022-09-09T09:25:56;99732.00;;;24.72;45.36
7109;BME280;29079;41.930;25.558;2022-09-09T09:28:30;99731.28;;;24.83;44.97
7109;BME280;29079;41.930;25.558;2022-09-09T09:31:04;99729.75;;;24.87;45.33
7109;BME280;29079;41.930;25.558;2022-09-09T09:33:41;99701.47;;;24.81;45.23
7109;BME280;29079;41.930;25.558;2022-09-09T09:36:15;99710.44;;;24.89;44.82
7109;BME280;29079;41.930;25.558;2022-09-09T09:38:53;99714.47;;;25.05;44.11
7109;BME280;29079;41.930;25.558;2022-09-09T09:41:44;99715.09;;;25.07;44.01
7109;BME280;29079;41.930;25.558;2022-09-09T09:44:24;99718.19;;;25.10;43.64
7109;BME280;29079;41.930;25.558;2022-09-09T09:47:06;99712.31;;;25.25;42.91
7109;BME280;29079;41.930;25.558;2022-09-09T09:49:38;99712.56;;;25.24;42.82
7109;BME280;29079;41.930;25.558;2022-09-09T09:52:13;99711.84;;;25.35;42.27
7109;BME280;29079;41.930;25.558;2022-09-09T09:54:47;99707.16;;;25.54;41.37
7109;BME280;29079;41.930;25.558;2022-09-09T09:57:17;99696.94;;;25.49;42.11
7109;BME280;29079;41.930;25.558;2022-09-09T09:59:48;99706.94;;;25.55;41.66
7109;BME280;29079;41.930;25.558;2022-09-09T10:02:20;99697.53;;;25.51;41.62
7109;BME280;29079;41.930;25.558;2022-09-09T10:05:03;99696.63;;;25.58;41.37
7109;BME280;29079;41.930;25.558;2022-09-09T10:07:34;99685.59;;;25.64;41.28
7109;BME280;29079;41.930;25.558;2022-09-09T10:10:10;99687.19;;;25.72;41.12
7109;BME280;29079;41.930;25.558;2022-09-09T10:12:53;99687.69;;;25.81;40.86
7109;BME280;29079;41.930;25.558;2022-09-09T10:15:38;99680.44;;;25.86;40.43
7109;BME280;29079;41.930;25.558;2022-09-09T10:18:39;99682.72;;;25.89;40.36
7109;BME280;29079;41.930;25.558;2022-09-09T10:21:24;99683.47;;;25.97;40.26
7109;BME280;29079;41.930;25.558;2022-09-09T10:24:12;99663.66;;;26.01;39.70
7109;BME280;29079;41.930;25.558;2022-09-09T10:26:51;99675.03;;;25.98;39.58
7109;BME280;29079;41.930;25.558;2022-09-09T10:29:42;99669.84;;;26.09;39.46
7109;BME280;29079;41.930;25.558;2022-09-09T10:32:35;99665.91;;;26.16;38.83
7109;BME280;29079;41.930;25.558;2022-09-09T10:35:12;99661.28;;;26.17;38.79
7109;BME280;29079;41.930;25.558;2022-09-09T10:37:56;99653.31;;;26.15;39.43
7109;BME280;29079;41.930;25.558;2022-09-09T10:40:34;99653.31;;;26.15;39.44
7109;BME280;29079;41.930;25.558;2022-09-09T10:43:16;99652.00;;;26.30;38.90
7109;BME280;29079;41.930;25.558;2022-09-09T10:45:57;99655.59;;;26.42;38.88
7109;BME280;29079;41.930;25.558;2022-09-09T10:48:48;99616.22;;;26.31;37.90
7109;BME280;29079;41.930;25.558;2022-09-09T10:51:29;99633.81;;;26.59;37.88
7109;BME280;29079;41.930;25.558;2022-09-09T10:54:14;99628.94;;;26.61;37.40
7109;BME280;29079;41.930;25.558;2022-09-09T10:56:55;99631.06;;;26.59;38.33
7109;BME280;29079;41.930;25.558;2022-09-09T10:59:28;99623.72;;;26.59;37.68
7109;BME280;29079;41.930;25.558;2022-09-09T11:02:03;99619.66;;;26.50;38.90
7109;BME280;29079;41.930;25.558;2022-09-09T11:04:41;99634.66;;;26.59;38.94
7109;BME280;29079;41.930;25.558;2022-09-09T11:07:20;99618.59;;;26.75;37.14
7109;BME280;29079;41.930;25.558;2022-09-09T11:09:58;99610.63;;;26.85;37.37
7109;BME280;29079;41.930;25.558;2022-09-09T11:12:30;99618.16;;;27.07;37.03
7109;BME280;29079;41.930;25.558;2022-09-09T11:15:06;99606.03;;;27.03;37.12
7109;BME280;29079;41.930;25.558;2022-09-09T11:17:40;99598.09;;;26.89;37.87
7109;BME280;29079;41.930;25.558;2022-09-09T11:20:13;99605.81;;;27.04;37.70
7109;BME280;29079;41.930;25.558;2022-09-09T11:22:47;99596.16;;;27.02;37.55
7109;BME280;29079;41.930;25.558;2022-09-09T11:25:22;99592.47;;;26.96;37.87
7109;BME280;29079;41.930;25.558;2022-09-09T11:28:08;99593.19;;;27.03;37.22
7109;BME280;29079;41.930;25.558;2022-09-09T11:30:52;99587.94;;;27.02;38.26
7109;BME280;29079;41.930;25.558;2022-09-09T11:33:41;99581.25;;;27.09;37.40
7109;BME280;29079;41.930;25.558;2022-09-09T11:36:36;99542.56;;;27.06;37.03
7109;BME280;29079;41.930;25.558;2022-09-09T11:39:26;99580.47;;;27.26;37.07
7109;BME280;29079;41.930;25.558;2022-09-09T11:42:07;99581.50;;;27.37;37.04
7109;BME280;29079;41.930;25.558;2022-09-09T11:44:45;99588.25;;;27.46;36.62
7109;BME280;29079;41.930;25.558;2022-09-09T11:47:22;99570.16;;;27.33;36.53
7109;BME280;29079;41.930;25.558;2022-09-09T11:49:53;99576.31;;;27.23;36.92
7109;BME280;29079;41.930;25.558;2022-09-09T11:52:24;99573.78;;;27.34;36.74
7109;BME280;29079;41.930;25.558;2022-09-09T11:54:55;99571.13;;;27.10;38.40
7109;BME280;29079;41.930;25.558;2022-09-09T11:57:32;99567.84;;;27.25;37.96
7109;BME280;29079;41.930;25.558;2022-09-09T12:00:05;99555.03;;;27.42;37.21
7109;BME280;29079;41.930;25.558;2022-09-09T12:02:35;99552.44;;;27.36;37.28
7109;BME280;29079;41.930;25.558;2022-09-09T12:05:07;99528.66;;;27.24;37.01
7109;BME280;29079;41.930;25.558;2022-09-09T12:07:42;99543.59;;;27.45;36.45
7109;BME280;29079;41.930;25.558;2022-09-09T12:10:25;99533.94;;;27.43;36.73
7109;BME280;29079;41.930;25.558;2022-09-09T12:13:07;99535.78;;;27.54;36.09
7109;BME280;29079;41.930;25.558;2022-09-09T12:15:47;99531.53;;;27.63;36.17
7109;BME280;29079;41.930;25.558;2022-09-09T12:18:23;99514.44;;;27.73;35.61
7109;BME280;29079;41.930;25.558;2022-09-09T12:20:58;99491.03;;;27.49;36.89
7109;BME280;29079;41.930;25.558;2022-09-09T12:23:39;99508.06;;;27.51;37.34
7109;BME280;29079;41.930;25.558;2022-09-09T12:26:28;99510.44;;;27.81;36.02
7109;BME280;29079;41.930;25.558;2022-09-09T12:29:15;99506.31;;;27.78;36.09
7109;BME280;29079;41.930;25.558;2022-09-09T12:31:55;99516.78;;;27.82;36.58
7109;BME280;29079;41.930;25.558;2022-09-09T12:34:33;99508.81;;;27.80;36.48
7109;BME280;29079;41.930;25.558;2022-09-09T12:37:14;99505.03;;;27.86;35.68
7109;BME280;29079;41.930;25.558;2022-09-09T12:39:51;99499.84;;;28.02;34.62
7109;BME280;29079;41.930;25.558;2022-09-09T12:42:23;99492.19;;;27.70;36.00
7109;BME280;29079;41.930;25.558;2022-09-09T12:44:56;99484.13;;;27.63;36.52
7109;BME280;29079;41.930;25.558;2022-09-09T12:47:34;99481.63;;;27.61;37.00
7109;BME280;29079;41.930;25.558;2022-09-09T12:50:15;99478.34;;;27.59;37.59
7109;BME280;29079;41.930;25.558;2022-09-09T12:52:46;99470.94;;;27.77;36.78
7109;BME280;29079;41.930;25.558;2022-09-09T12:55:20;99467.88;;;27.95;35.39
7109;BME280;29079;41.930;25.558;2022-09-09T12:57:53;99465.75;;;27.80;36.80
7109;BME280;29079;41.930;25.558;2022-09-09T13:00:26;99457.09;;;27.89;36.34
7109;BME280;29079;41.930;25.558;2022-09-09T13:02:58;99459.84;;;27.89;36.65
7109;BME280;29079;41.930;25.558;2022-09-09T13:05:35;99433.38;;;27.77;36.39
7109;BME280;29079;41.930;25.558;2022-09-09T13:08:08;99442.59;;;27.71;37.02
7109;BME280;29079;41.930;25.558;2022-09-09T13:10:40;99444.84;;;27.57;37.62
7109;BME280;29079;41.930;25.558;2022-09-09T13:13:25;99435.56;;;27.58;37.59
7109;BME280;29079;41.930;25.558;2022-09-09T13:16:02;99432.56;;;27.60;36.54
7109;BME280;29079;41.930;25.558;2022-09-09T13:18:38;99437.38;;;27.70;37.18
7109;BME280;29079;41.930;25.558;2022-09-09T13:21:10;99437.22;;;27.59;37.36
7109;BME280;29079;41.930;25.558;2022-09-09T13:23:40;99437.44;;;27.75;36.81
7109;BME280;29079;41.930;25.558;2022-09-09T13:26:21;99437.66;;;27.90;36.32
7109;BME280;29079;41.930;25.558;2022-09-09T13:28:53;99423.22;;;28.17;35.65
7109;BME280;29079;41.930;25.558;2022-09-09T13:31:29;99426.31;;;27.99;35.65
7109;BME280;29079;41.930;25.558;2022-09-09T13:34:11;99429.84;;;27.82;36.42
7109;BME280;29079;41.930;25.558;2022-09-09T13:36:46;99429.69;;;27.89;36.72
7109;BME280;29079;41.930;25.558;2022-09-09T13:39:17;99422.22;;;27.84;37.14